createdAt,value
2018-07-10T00:07:11.038Z,14.21
2018-07-10T00:12:13.230Z,14.18
2018-07-10T00:17:15.406Z,14.04
2018-07-10T00:22:17.589Z,14.06
2018-07-10T00:27:19.815Z,14.00
2018-07-10T00:32:21.957Z,14.12
2018-07-10T00:37:24.280Z,14.34
2018-07-10T00:42:26.437Z,14.51
2018-07-10T00:47:28.627Z,14.51
2018-07-10T00:52:32.491Z,14.30
2018-07-10T00:57:34.679Z,14.19
2018-07-10T01:02:36.900Z,13.98
2018-07-10T01:07:39.115Z,13.93
2018-07-10T01:12:41.306Z,13.96
2018-07-10T01:17:43.498Z,14.08
2018-07-10T01:22:46.061Z,14.10
2018-07-10T01:27:48.281Z,14.24
2018-07-10T01:32:50.957Z,14.21
2018-07-10T01:37:53.138Z,14.26
2018-07-10T01:42:55.317Z,14.21
2018-07-10T01:47:57.517Z,14.18
2018-07-10T01:52:59.866Z,14.10
2018-07-10T01:58:02.461Z,14.16
2018-07-10T02:03:04.766Z,14.10
2018-07-10T02:08:06.984Z,14.02
2018-07-10T02:13:09.167Z,13.94
2018-07-10T02:18:11.339Z,13.73
2018-07-10T02:23:13.522Z,13.75
2018-07-10T02:28:15.724Z,13.73
2018-07-10T02:33:17.915Z,13.74
2018-07-10T02:38:20.130Z,13.70
2018-07-10T02:43:22.328Z,13.77
2018-07-10T02:48:27.879Z,13.76
2018-07-10T02:53:31.063Z,13.64
2018-07-10T02:58:33.955Z,13.75
2018-07-10T03:03:38.194Z,13.84
2018-07-10T03:08:40.471Z,13.86
2018-07-10T03:13:42.730Z,13.95
2018-07-10T03:18:44.917Z,13.94
2018-07-10T03:23:47.124Z,13.95
2018-07-10T03:28:49.323Z,13.85
2018-07-10T03:33:51.546Z,13.98
2018-07-10T03:38:53.701Z,13.84
2018-07-10T03:43:55.879Z,13.77
2018-07-10T03:48:58.075Z,13.80
2018-07-10T03:54:00.239Z,13.79
2018-07-10T03:59:02.417Z,13.88
2018-07-10T04:04:05.118Z,14.07
2018-07-10T04:09:07.639Z,14.15
2018-07-10T04:14:09.815Z,14.10
2018-07-10T04:19:12.497Z,14.23
2018-07-10T04:24:17.041Z,14.33
2018-07-10T04:29:32.422Z,14.55
2018-07-10T04:34:34.594Z,14.62
2018-07-10T04:39:37.810Z,14.66
2018-07-10T04:44:40.928Z,14.61
2018-07-10T04:49:50.192Z,14.61
2018-07-10T04:55:12.305Z,14.64
2018-07-10T05:00:14.482Z,14.53
2018-07-10T05:05:16.876Z,14.61
2018-07-10T05:10:19.056Z,14.63
2018-07-10T05:15:21.275Z,14.57
2018-07-10T05:20:25.515Z,14.71
2018-07-10T05:25:27.714Z,14.81
2018-07-10T05:30:29.930Z,14.92
2018-07-10T05:35:32.118Z,15.05
2018-07-10T05:40:34.519Z,15.14
2018-07-10T05:45:37.995Z,15.26
2018-07-10T05:50:40.196Z,15.40
2018-07-10T05:55:45.549Z,15.50
2018-07-10T06:00:47.715Z,15.59
2018-07-10T06:05:49.892Z,15.58
2018-07-10T06:10:52.079Z,15.69
2018-07-10T06:15:54.292Z,15.49
2018-07-10T06:20:56.479Z,15.57
2018-07-10T06:25:58.665Z,15.70
2018-07-10T06:31:04.299Z,15.88
2018-07-10T06:36:12.515Z,15.91
2018-07-10T06:41:14.718Z,15.78
2018-07-10T06:46:19.936Z,15.99
2018-07-10T06:51:22.142Z,16.26
2018-07-10T06:56:27.396Z,16.43
2018-07-10T07:01:29.610Z,16.76
2018-07-10T07:06:31.808Z,16.91
2018-07-10T07:11:34.016Z,17.00
2018-07-10T07:16:36.270Z,17.00
2018-07-10T07:21:38.466Z,17.03
2018-07-10T07:26:40.712Z,17.39
2018-07-10T07:31:42.903Z,17.01
2018-07-10T07:36:45.084Z,16.94
2018-07-10T07:41:47.539Z,17.47
2018-07-10T07:46:49.744Z,17.73
2018-07-10T07:51:51.947Z,18.12
2018-07-10T07:56:54.178Z,18.17
2018-07-10T08:01:56.448Z,18.11
2018-07-10T08:06:59.150Z,18.26
2018-07-10T08:12:01.846Z,18.18
2018-07-10T08:17:04.071Z,18.28
2018-07-10T08:22:06.263Z,18.46
2018-07-10T08:27:08.471Z,18.51
2018-07-10T08:32:10.687Z,18.66
2018-07-10T08:37:12.942Z,18.61
2018-07-10T08:42:15.184Z,18.55
2018-07-10T08:47:17.346Z,18.83
2018-07-10T08:52:19.551Z,19.22
2018-07-10T08:57:21.812Z,19.20
2018-07-10T09:02:24.004Z,19.26
2018-07-10T09:07:26.212Z,19.36
2018-07-10T09:12:28.417Z,20.00
2018-07-10T09:17:30.654Z,19.78
2018-07-10T09:22:32.865Z,19.21
2018-07-10T09:27:35.106Z,18.70
2018-07-10T09:32:42.991Z,18.29
2018-07-10T09:37:45.958Z,18.46
2018-07-10T09:42:57.763Z,18.54
2018-07-10T09:48:00.356Z,18.67
2018-07-10T09:53:03.032Z,18.88
2018-07-10T09:58:06.172Z,18.93
2018-07-10T10:03:08.368Z,18.96
2018-07-10T10:08:11.126Z,18.96
2018-07-10T10:13:13.344Z,19.48
2018-07-10T10:18:15.908Z,19.79
2018-07-10T10:23:18.124Z,20.31
2018-07-10T10:28:21.962Z,20.39
2018-07-10T10:33:24.208Z,20.09
2018-07-10T10:38:26.431Z,19.75
2018-07-10T10:43:28.651Z,20.47
2018-07-10T10:48:30.890Z,20.59
2018-07-10T10:53:33.102Z,20.01
2018-07-10T10:58:35.335Z,20.64
2018-07-10T11:03:37.606Z,20.95
2018-07-10T11:08:39.822Z,20.81
2018-07-10T11:13:42.016Z,20.70
2018-07-10T11:18:54.937Z,20.16
2018-07-10T11:23:58.052Z,20.52
2018-07-10T11:29:01.167Z,20.78
2018-07-10T11:34:03.951Z,20.95
2018-07-10T11:39:11.562Z,21.43
2018-07-10T11:44:13.730Z,22.05
2018-07-10T11:49:15.966Z,22.88
2018-07-10T11:54:18.237Z,23.12
2018-07-10T11:59:20.497Z,23.70
2018-07-10T12:04:22.723Z,22.39
2018-07-10T12:09:24.961Z,21.97
2018-07-10T12:14:27.179Z,22.37
2018-07-10T12:19:29.592Z,22.49
2018-07-10T12:24:31.838Z,23.09
2018-07-10T12:29:34.072Z,22.32
2018-07-10T12:34:36.309Z,22.59
2018-07-10T12:39:38.538Z,22.55
2018-07-10T12:44:41.233Z,23.70
2018-07-10T12:49:43.634Z,24.26
2018-07-10T12:54:45.880Z,24.69
2018-07-10T12:59:48.093Z,24.68
2018-07-10T13:04:50.329Z,25.88
2018-07-10T13:09:52.569Z,24.04
2018-07-10T13:14:54.735Z,23.47
2018-07-10T13:20:00.005Z,23.63
2018-07-10T13:25:02.246Z,23.36
2018-07-10T13:30:04.474Z,23.16
2018-07-10T13:35:06.670Z,23.70
2018-07-10T13:40:08.867Z,24.81
2018-07-10T13:45:11.416Z,25.06
2018-07-10T13:50:16.079Z,25.51
2018-07-10T13:55:18.359Z,24.64
2018-07-10T14:00:20.609Z,25.23
2018-07-10T14:05:23.787Z,26.51
2018-07-10T14:10:26.057Z,26.16
2018-07-10T14:15:28.380Z,25.32
2018-07-10T14:20:35.108Z,24.58
2018-07-10T14:25:37.311Z,25.31
2018-07-10T14:30:39.526Z,26.12
2018-07-10T14:35:42.074Z,26.74
2018-07-10T14:40:47.159Z,26.53
2018-07-10T14:45:49.998Z,26.71
2018-07-10T14:50:53.620Z,26.90
2018-07-10T14:55:55.873Z,27.27
2018-07-10T15:00:58.074Z,27.07
2018-07-10T15:06:00.306Z,26.62
2018-07-10T15:11:02.520Z,27.12
2018-07-10T15:16:04.742Z,27.17
2018-07-10T15:21:06.998Z,27.36
2018-07-10T15:26:09.249Z,27.25
2018-07-10T15:31:11.913Z,27.26
2018-07-10T15:36:14.169Z,27.79
2018-07-10T15:41:16.676Z,27.68
2018-07-10T15:46:18.872Z,26.39
2018-07-10T15:51:21.103Z,26.60
2018-07-10T15:56:23.345Z,26.78
2018-07-10T16:01:25.605Z,27.35
2018-07-10T16:06:28.791Z,27.71
2018-07-10T16:11:31.011Z,27.34
2018-07-10T16:16:33.816Z,26.86
2018-07-10T16:21:46.869Z,25.76
2018-07-10T16:26:49.127Z,24.13
2018-07-10T16:31:54.066Z,23.98
2018-07-10T16:36:56.389Z,24.10
2018-07-10T16:42:04.172Z,24.58
2018-07-10T16:47:13.361Z,24.50
2018-07-10T16:52:55.136Z,23.84
2018-07-10T16:57:57.354Z,23.51
2018-07-10T17:02:59.762Z,23.83
2018-07-10T17:08:02.019Z,23.66
2018-07-10T17:13:04.246Z,24.01
2018-07-10T17:18:06.473Z,24.34
2018-07-10T17:23:08.755Z,24.06
2018-07-10T17:28:13.077Z,23.70
2018-07-10T17:33:15.320Z,23.30
2018-07-10T17:38:17.556Z,22.86
2018-07-10T17:43:19.809Z,22.99
2018-07-10T17:48:22.206Z,23.17
2018-07-10T17:53:24.478Z,23.05
2018-07-10T17:58:27.418Z,22.74
2018-07-10T18:03:29.699Z,22.14
2018-07-10T18:08:31.952Z,21.92
2018-07-10T18:13:34.176Z,21.59
2018-07-10T18:18:36.442Z,21.25
2018-07-10T18:23:38.911Z,21.25
2018-07-10T18:28:41.117Z,21.40
2018-07-10T18:33:43.359Z,21.23
2018-07-10T18:38:45.716Z,21.10
2018-07-10T18:43:47.956Z,21.08
2018-07-10T18:48:50.206Z,21.28
2018-07-10T18:53:52.478Z,21.14
2018-07-10T18:59:02.108Z,20.93
2018-07-10T19:04:04.388Z,20.68
2018-07-10T19:09:06.987Z,20.80
2018-07-10T19:14:09.253Z,20.76
2018-07-10T19:19:11.532Z,20.77
2018-07-10T19:24:15.485Z,20.55
2018-07-10T19:29:23.150Z,20.58
2018-07-10T19:34:25.548Z,20.68
2018-07-10T19:39:27.840Z,20.48
2018-07-10T19:44:30.314Z,20.73
2018-07-10T19:49:33.171Z,20.98
2018-07-10T19:54:35.957Z,20.96
2018-07-10T19:59:38.226Z,20.84
2018-07-10T20:04:55.083Z,20.64
2018-07-10T20:10:00.747Z,20.61
2018-07-10T20:15:12.738Z,20.83
2018-07-10T20:20:18.400Z,21.01
2018-07-10T20:27:34.272Z,21.04
2018-07-10T20:32:40.797Z,20.94
2018-07-10T20:37:44.282Z,20.88
2018-07-10T20:42:46.613Z,20.88
2018-07-10T20:47:51.918Z,20.84
2018-07-10T20:52:59.918Z,20.19
2018-07-10T20:58:06.723Z,19.92
2018-07-10T21:03:19.876Z,19.69
2018-07-10T21:08:29.990Z,19.67
2018-07-10T21:13:50.289Z,19.59
2018-07-10T21:19:08.784Z,19.41
2018-07-10T21:24:16.263Z,19.41
2018-07-10T21:29:55.498Z,19.42
2018-07-10T21:35:01.222Z,19.25
2018-07-10T21:40:16.629Z,19.31
2018-07-10T21:47:37.184Z,19.06
2018-07-10T21:52:39.424Z,19.03
2018-07-10T21:57:42.953Z,19.07
2018-07-10T22:02:45.264Z,19.02
2018-07-10T22:07:47.472Z,18.88
2018-07-10T22:12:51.072Z,18.86
2018-07-10T22:17:53.285Z,18.88
2018-07-10T22:22:55.536Z,18.73
2018-07-10T22:27:57.770Z,18.73
2018-07-10T22:33:03.107Z,18.52
2018-07-10T22:38:05.554Z,18.70
2018-07-10T22:43:07.816Z,18.56
2018-07-10T22:48:10.015Z,18.65
2018-07-10T22:53:12.275Z,18.66
2018-07-10T22:58:14.483Z,18.67
2018-07-10T23:03:19.118Z,18.81
2018-07-10T23:08:28.430Z,18.93
2018-07-10T23:13:31.391Z,18.82
2018-07-10T23:18:33.595Z,18.90
2018-07-10T23:23:35.754Z,18.77
2018-07-10T23:28:38.324Z,18.82
2018-07-10T23:33:42.876Z,18.91
2018-07-10T23:38:58.795Z,18.86
2018-07-10T23:44:00.981Z,18.81
2018-07-10T23:49:13.167Z,18.80
2018-07-10T23:54:15.307Z,18.91
2018-07-10T23:59:17.522Z,18.97
